Terminal Aerodrome Forecast
Issued by NWS

Home | Current Version | Previous Version | Text Only | Print | Product List | Glossary On
Versions: 1 2 3 4 5 6 7 8 9 10 11 12 13 14 15 16 17 18 19 20
000
FTUS41 KPBZ 200800 AAA
TAFFKL
TAF AMD
KFKL 200816Z 2008/2106 23005KT 5SM BR VCSH SCT025 BKN040
      TEMPO 2008/2010 3SM -SHRA BR BKN025 OVC040
     FM201200 21004KT 6SM BR SCT040
     FM201600 22010KT P6SM VCTS BKN040CB
     FM210000 23005KT P6SM SCT040
      AMD LTD TO CLD VIS AND WIND=

USA.gov is the U.S. government's official web portal to all federal, state and local government web resources and services.